Time;durP1;ratioP1;P1;durP2;ratioP2;P2;SDS_P1;SDS_P2;PMS_P1;PMS_P2;Temp;Humidity;BMP_temperature;BMP_pressure;BME280_temperature;BME280_humidity;BME280_pressure;Samples;Min_cycle;Max_cycle;Signal;HPM_P1;HPM_P2
2022/05/19 00:04:51;;;;;;;39.60;13.07;;;;;;;12.52;46.18;101659.44;5160963;57;1143298;-69
2022/05/19 00:09:57;;;;;;;25.90;8.77;;;;;;;12.55;45.72;101660.53;5164721;57;1143156;-73
2022/05/19 00:15:04;;;;;;;39.30;13.20;;;;;;;12.47;45.36;101653.11;5164890;57;1141176;-74
2022/05/19 00:20:10;;;;;;;32.23;10.67;;;;;;;12.30;45.15;101653.38;5164834;57;1143394;-69
2022/05/19 00:25:16;;;;;;;18.23;8.20;;;;;;;12.19;44.96;101648.80;5164811;57;1143170;-67
2022/05/19 00:30:22;;;;;;;17.03;8.23;;;;;;;11.93;44.70;101647.84;5164548;57;1141094;-69
2022/05/19 00:35:28;;;;;;;15.47;6.00;;;;;;;11.79;44.91;101647.89;5155727;56;1141092;-68
2022/05/19 00:40:35;;;;;;;13.17;4.63;;;;;;;11.71;44.87;101646.19;5216523;56;1141292;-74
2022/05/19 00:45:51;;;;;;;18.10;4.97;;;;;;;11.60;44.85;101648.21;5255062;56;1139114;-72
2022/05/19 00:51:01;;;;;;;8.20;4.33;;;;;;;11.58;44.91;101647.45;5296083;55;1138970;-70
2022/05/19 00:56:27;;;;;;;9.80;3.87;;;;;;;11.62;45.44;101646.77;5256859;55;1136894;-70
2022/05/19 01:01:36;;;;;;;7.73;2.67;;;;;;;11.60;45.85;101644.23;5115087;57;1137037;-72
2022/05/19 01:06:43;;;;;;;6.63;3.30;;;;;;;11.61;46.37;101641.09;5130616;57;1136870;-73
2022/05/19 01:11:54;;;;;;;13.07;4.20;;;;;;;11.43;46.38;101636.51;5131302;57;1137007;-72
2022/05/19 01:16:57;;;;;;;13.17;5.17;;;;;;;11.33;46.86;101634.05;5151974;56;1138968;-70
2022/05/19 01:22:21;;;;;;;11.80;5.60;;;;;;;11.31;47.69;101625.34;5158380;56;1138999;-72
2022/05/19 01:27:29;;;;;;;10.60;5.10;;;;;;;11.20;48.49;101615.43;5148223;57;1141053;-71
2022/05/19 01:32:36;;;;;;;14.77;4.50;;;;;;;11.05;49.07;101608.45;5137072;56;1141062;-71
2022/05/19 01:37:43;;;;;;;6.87;4.07;;;;;;;10.86;49.62;101608.72;5164907;55;1141012;-72
2022/05/19 01:43:16;;;;;;;7.73;3.83;;;;;;;10.89;50.24;101607.22;5162460;57;1138948;-70
2022/05/19 01:48:53;;;;;;;9.43;3.53;;;;;;;10.92;50.14;101606.19;5251715;56;1139211;-70
2022/05/19 01:54:15;;;;;;;11.00;3.83;;;;;;;10.81;49.78;101608.17;5260126;55;1139011;-73
2022/05/19 01:59:58;;;;;;;5.70;2.87;;;;;;;10.80;49.94;101596.36;5254570;55;1141063;-72
2022/05/19 02:05:32;;;;;;;12.13;3.10;;;;;;;10.69;49.63;101603.64;5254788;55;1138955;-73
2022/05/19 02:10:39;;;;;;;;;;;;;;;10.63;49.77;101596.06;5210990;55;1141313;-69
2022/05/19 02:15:46;;;;;;;17.93;3.50;;;;;;;10.53;49.77;101590.48;5224467;56;976760;-70
2022/05/19 02:20:55;;;;;;;16.57;4.40;;;;;;;10.48;49.92;101594.34;5231859;56;1139006;-72
2022/05/19 02:26:01;;;;;;;7.20;3.40;;;;;;;10.48;49.94;101595.20;5217214;56;1139251;-68
2022/05/19 02:31:07;;;;;;;24.97;4.33;;;;;;;10.40;49.89;101596.58;5206592;56;1137165;-71
2022/05/19 02:36:13;;;;;;;16.67;4.53;;;;;;;10.41;50.51;101595.63;5256878;56;1138911;-71
2022/05/19 02:41:18;;;;;;;41.87;5.90;;;;;;;10.40;50.42;101586.00;5214850;56;1139067;-74
2022/05/19 02:46:25;;;;;;;33.97;6.10;;;;;;;10.38;50.34;101589.23;5206495;56;1138992;-68
2022/05/19 02:51:30;;;;;;;19.10;4.97;;;;;;;10.28;50.68;101586.73;5233659;56;1138999;-72
2022/05/19 02:56:38;;;;;;;13.47;4.43;;;;;;;10.23;51.08;101575.13;5236054;56;1138998;-73
2022/05/19 03:01:44;;;;;;;17.03;5.03;;;;;;;10.09;51.11;101577.67;5322329;55;1138927;-72
2022/05/19 03:06:52;;;;;;;20.00;4.03;;;;;;;9.95;51.11;101585.56;5341767;55;1138973;-74
2022/05/19 03:11:57;;;;;;;15.17;4.63;;;;;;;9.84;51.56;101588.36;5341887;55;1136881;-75
2022/05/19 03:17:08;;;;;;;19.63;4.70;;;;;;;9.86;51.87;101585.64;5341833;55;1136900;-71
2022/05/19 03:22:14;;;;;;;18.93;4.53;;;;;;;9.78;51.92;101585.20;5251482;55;1134880;-69
2022/05/19 03:27:21;;;;;;;25.13;5.07;;;;;;;9.79;52.19;101577.20;5325319;55;1134780;-70
2022/05/19 03:32:26;;;;;;;37.20;4.73;;;;;;;9.91;52.65;101573.48;5308327;55;1136925;-68
2022/05/19 03:37:32;;;;;;;57.70;7.57;;;;;;;10.03;52.80;101568.80;5243076;56;1136856;-72
2022/05/19 03:42:38;;;;;;;58.57;6.63;;;;;;;10.07;52.56;101567.22;5242604;56;1139028;-70
2022/05/19 03:47:44;;;;;;;39.30;5.97;;;;;;;10.03;52.41;101569.66;5242701;56;1138989;-72
2022/05/19 03:52:50;;;;;;;62.13;9.00;;;;;;;9.97;52.17;101573.97;5242755;56;1136908;-72
2022/05/19 03:57:56;;;;;;;58.07;10.87;;;;;;;9.86;52.65;101575.92;5223522;56;1134996;-73
2022/05/19 04:03:02;;;;;;;25.40;7.70;;;;;;;9.76;53.03;101585.80;5221465;56;1141284;-70
2022/05/19 04:08:08;;;;;;;44.13;9.40;;;;;;;9.62;53.62;101586.58;5142470;56;1136966;-71
2022/05/19 04:13:14;;;;;;;63.70;9.50;;;;;;;9.64;54.09;101585.14;5221246;56;1137092;-72
2022/05/19 04:18:20;;;;;;;37.42;8.85;;;;;;;9.68;54.49;101591.50;5150568;56;1137006;-67
2022/05/19 04:23:26;;;;;;;58.97;9.57;;;;;;;9.78;54.89;101579.45;5154896;56;1136696;-69
2022/05/19 04:28:32;;;;;;;84.10;10.93;;;;;;;9.88;54.81;101589.90;5161145;56;1138980;-71
2022/05/19 04:33:38;;;;;;;83.03;13.83;;;;;;;10.06;55.27;101580.52;5148113;56;1141122;-71
2022/05/19 04:38:44;;;;;;;54.70;12.93;;;;;;;10.27;55.21;101581.06;5198522;56;1143204;-70
2022/05/19 04:43:49;;;;;;;45.33;9.23;;;;;;;10.46;55.19;101584.32;5154670;55;1143145;-69
2022/05/19 04:48:55;;;;;;;25.30;8.80;;;;;;;10.66;55.28;101581.33;5154586;57;1141321;-74
2022/05/19 04:54:01;;;;;;;45.70;8.80;;;;;;;10.83;55.38;101575.00;5164959;56;1141047;-70
2022/05/19 04:59:13;;;;;;;37.97;7.53;;;;;;;10.94;55.31;101581.80;5235692;55;1141203;-69
2022/05/19 05:04:17;;;;;;;21.47;5.03;;;;;;;11.04;55.26;101580.74;5245727;55;1141424;-72
2022/05/19 05:09:22;;;;;;;16.13;5.03;;;;;;;11.26;55.48;101577.98;5321083;55;1140491;-72
2022/05/19 05:14:28;;;;;;;16.77;4.50;;;;;;;11.57;55.38;101578.19;5298632;55;1141125;-75
2022/05/19 05:19:34;;;;;;;20.97;3.33;;;;;;;11.93;54.87;101578.06;5231967;55;1141016;-75
2022/05/19 05:24:40;;;;;;;14.33;3.20;;;;;;;12.26;54.03;101569.17;5231685;55;1141034;-75
2022/05/19 05:29:46;;;;;;;10.97;2.93;;;;;;;12.56;52.83;101570.68;5231894;55;1141074;-77
2022/05/19 05:34:51;;;;;;;17.47;3.20;;;;;;;12.84;51.40;101570.45;5270463;55;1141055;-74
2022/05/19 05:39:57;;;;;;;4.63;2.70;;;;;;;13.20;51.56;101574.15;5265542;55;1141094;-75
2022/05/19 05:45:04;;;;;;;8.73;2.80;;;;;;;13.56;50.15;101570.64;5241733;55;1139152;-76
2022/05/19 05:50:11;;;;;;;9.47;2.67;;;;;;;13.89;47.54;101572.63;5194585;56;1139063;-76
2022/05/19 05:55:17;;;;;;;6.67;2.00;;;;;;;14.21;46.72;101568.83;5188599;56;1139012;-75
2022/05/19 06:00:23;;;;;;;7.10;2.93;;;;;;;14.45;44.65;101578.13;5206742;56;1139045;-74
2022/05/19 06:05:29;;;;;;;6.67;2.03;;;;;;;14.63;45.29;101573.58;5221404;56;1138973;-76
2022/05/19 06:10:35;;;;;;;12.00;2.83;;;;;;;14.96;43.49;101579.89;5241540;55;1138908;-76
2022/05/19 06:15:41;;;;;;;7.10;2.70;;;;;;;15.15;41.23;101573.44;5310087;55;1141076;-75
2022/05/19 06:20:47;;;;;;;6.77;2.17;;;;;;;15.34;42.45;101576.33;5310339;55;1138921;-76
2022/05/19 06:25:53;;;;;;;2.97;2.07;;;;;;;15.52;41.31;101575.32;5311019;55;1138898;-75
2022/05/19 06:30:59;;;;;;;2.47;2.00;;;;;;;15.69;42.27;101576.16;5310996;55;1138955;-74
2022/05/19 06:36:10;;;;;;;4.60;2.57;;;;;;;15.96;40.94;101575.69;5299579;55;1138980;-76
2022/05/19 06:46:39;;;;;;;9.25;1.95;;;;;;;16.39;41.16;101577.39;5310905;55;1139081;-75
2022/05/19 06:51:45;;;;;;;2.60;1.83;;;;;;;16.67;40.58;101570.07;5310710;55;1138948;-75
2022/05/19 06:56:51;;;;;;;4.87;2.10;;;;;;;16.83;40.26;101554.89;5237665;55;1139017;-75
2022/05/19 07:01:57;;;;;;;8.67;1.93;;;;;;;17.18;41.41;101549.96;5221966;56;1136887;-76
2022/05/19 07:07:04;;;;;;;9.37;2.30;;;;;;;17.46;40.77;101543.47;5222114;55;1137130;-75
2022/05/19 07:12:11;;;;;;;8.37;1.60;;;;;;;17.75;39.55;101542.19;5301996;55;1136797;-74
2022/05/19 07:17:17;;;;;;;4.40;1.83;;;;;;;17.93;39.42;101532.47;5306563;55;1136919;-77
2022/05/19 07:22:24;;;;;;;4.77;1.87;;;;;;;18.13;39.34;101535.49;5310710;55;1136952;-77
2022/05/19 07:27:30;;;;;;;4.10;1.60;;;;;;;18.39;38.69;101536.20;5301252;55;1137128;-77
2022/05/19 07:32:36;;;;;;;3.03;1.93;;;;;;;18.64;38.73;101532.09;5299865;55;1136949;-78
2022/05/19 07:37:42;;;;;;;5.43;1.63;;;;;;;18.91;37.36;101525.41;5305558;55;1137191;-75
2022/05/19 07:42:49;;;;;;;11.63;1.30;;;;;;;19.14;37.19;101519.14;5221891;56;1136974;-75
2022/05/19 07:47:54;;;;;;;4.90;1.60;;;;;;;19.46;35.19;101513.28;5221833;56;1139027;-76
2022/05/19 07:53:00;;;;;;;2.77;1.40;;;;;;;19.71;34.72;101521.13;5221799;56;1136974;-76
2022/05/19 07:58:06;;;;;;;5.23;1.70;;;;;;;20.12;34.36;101521.80;5221878;56;1136884;-74
2022/05/19 08:03:12;;;;;;;2.63;1.40;;;;;;;20.12;34.36;101521.80;5149761;56;1136864;-76
2022/05/19 08:08:18;;;;;;;2.17;1.07;;;;;;;20.36;32.17;101519.30;5270871;55;1136870;-76
2022/05/19 08:18:48;;;;;;;1.62;1.42;;;;;;;20.48;31.22;101512.30;5222068;55;1134813;-74
2022/05/19 08:23:54;;;;;;;2.87;1.60;;;;;;;20.58;31.13;101511.21;5222022;55;1139191;-75
2022/05/19 08:28:59;;;;;;;3.60;1.30;;;;;;;20.78;32.65;101502.38;5221992;56;1139178;-74
2022/05/19 08:34:04;;;;;;;7.20;1.77;;;;;;;20.96;32.38;101491.53;5265080;55;1138967;-76
2022/05/19 08:39:13;;;;;;;5.90;1.80;;;;;;;21.17;31.09;101491.10;5310447;55;1139259;-76
2022/05/19 08:44:29;;;;;;;1.67;1.22;;;;;;;21.27;31.86;101488.63;5310436;55;1138988;-74
2022/05/19 08:49:51;;;;;;;5.45;1.42;;;;;;;21.36;31.14;101476.05;5310457;55;1139184;-74
2022/05/19 08:54:59;;;;;;;2.67;1.23;;;;;;;21.52;31.55;101471.19;5271469;55;1138989;-74
2022/05/19 09:00:24;;;;;;;3.42;1.62;;;;;;;21.69;31.43;101462.92;5195133;55;1138977;-75
2022/05/19 09:05:42;;;;;;;5.45;1.42;;;;;;;21.95;31.65;101452.49;5210154;55;1139008;-74
2022/05/19 09:11:07;;;;;;;11.33;2.08;;;;;;;22.14;30.94;101452.16;5260091;55;1138991;-77
2022/05/19 09:16:18;;;;;;;10.38;2.30;;;;;;;22.14;30.93;101449.98;5307109;55;1141375;-76
2022/05/19 09:21:24;;;;;;;4.15;1.50;;;;;;;22.30;31.30;101439.16;5310187;55;1141113;-76
2022/05/19 09:26:54;;;;;;;4.15;1.77;;;;;;;22.44;30.20;101437.93;5310129;55;1139162;-76
2022/05/19 09:32:09;;;;;;;9.10;1.80;;;;;;;22.60;31.17;101430.80;5309971;55;1139322;-76
2022/05/19 09:37:36;;;;;;;4.22;1.77;;;;;;;22.80;32.28;101426.16;5294280;55;1138982;-77
2022/05/19 09:42:56;;;;;;;7.60;1.72;;;;;;;23.02;31.64;101417.78;5231348;55;1136982;-75
2022/05/19 09:48:06;;;;;;;2.58;1.67;;;;;;;23.17;30.97;101417.01;5231952;55;1136933;-76
2022/05/19 09:53:19;;;;;;;6.96;1.66;;;;;;;23.34;32.26;101415.36;5289768;55;1136901;-76
2022/05/19 09:58:28;;;;;;;4.50;1.98;;;;;;;23.56;31.36;101410.98;5331478;55;1136862;-76
2022/05/19 10:03:44;;;;;;;5.12;2.05;;;;;;;23.62;31.29;101395.41;5331747;55;1136888;-76
2022/05/19 10:09:06;;;;;;;6.30;2.20;;;;;;;23.78;31.37;101393.07;5330420;55;1136868;-77
2022/05/19 10:14:17;;;;;;;3.93;1.50;;;;;;;23.98;30.77;101395.58;5332136;55;1134930;-75
2022/05/19 10:20:04;;;;;;;3.47;1.73;;;;;;;24.15;30.75;101383.53;5330770;54;1138872;-75
2022/05/19 10:25:39;;;;;;;10.28;2.17;;;;;;;24.17;30.78;101380.13;5242041;55;1138986;-75
2022/05/19 10:31:12;;;;;;;11.93;2.25;;;;;;;24.35;32.99;101365.42;5237233;55;1141071;-75
2022/05/19 10:37:07;;;;;;;5.50;2.42;;;;;;;24.67;30.56;101352.82;5325500;55;1141030;-76
2022/05/19 10:42:30;;;;;;;8.78;2.10;;;;;;;24.75;28.15;101337.80;5316277;55;1139160;-75
2022/05/19 10:47:58;;;;;;;;;;;;;;;24.93;28.39;101335.18;5313893;55;1139012;-75
2022/05/19 10:53:23;;;;;;;7.50;2.10;;;;;;;25.09;26.54;101325.48;5299491;55;974238;-77
2022/05/19 10:58:49;;;;;;;5.67;1.52;;;;;;;25.22;27.03;101327.78;5309708;55;1134753;-75
2022/05/19 11:04:17;;;;;;;10.50;1.70;;;;;;;25.29;26.01;101317.02;5310073;55;1136813;-76
2022/05/19 11:09:46;;;;;;;9.98;1.62;;;;;;;25.37;26.23;101307.91;5299674;55;1137081;-76
2022/05/19 11:15:12;;;;;;;5.58;2.15;;;;;;;25.58;26.44;101304.64;5288166;55;1139146;-77
2022/05/19 11:20:26;;;;;;;8.93;2.00;;;;;;;25.74;25.77;101298.11;5310416;55;1139001;-76
2022/05/19 11:31:26;;;;;;;12.30;2.00;;;;;;;25.91;26.31;101288.61;5223504;55;1138913;-75
2022/05/19 11:37:00;;;;;;;8.95;2.10;;;;;;;26.12;26.43;101288.20;5308424;55;1140998;-76
2022/05/19 11:42:25;;;;;;;8.15;2.00;;;;;;;26.25;25.38;101283.66;5306234;55;1138975;-75
2022/05/19 11:58:36;;;;;;;2.17;1.70;;;;;;;26.69;24.31;101261.99;5310351;55;1136947;-77
2022/05/19 12:04:08;;;;;;;7.20;2.15;;;;;;;26.73;24.76;101267.33;5310426;55;1136923;-76
2022/05/19 12:09:27;;;;;;;5.22;2.55;;;;;;;26.89;24.15;101260.63;5309859;55;1136870;-77
2022/05/19 12:14:42;;;;;;;6.87;2.08;;;;;;;26.91;25.24;101263.45;5310619;55;1134801;-77
2022/05/19 12:20:02;;;;;;;5.97;1.90;;;;;;;27.08;25.43;101261.20;5310449;55;1139163;-78
2022/05/19 12:25:17;;;;;;;8.23;1.90;;;;;;;27.29;24.86;101252.84;5310687;55;1139052;-76
2022/05/19 12:36:08;;;;;;;5.22;2.17;;;;;;;27.31;25.06;101240.41;5262333;55;976432;-76
2022/05/19 12:41:36;;;;;;;3.47;1.82;;;;;;;27.36;25.50;101234.31;5314983;55;1137138;-75
2022/05/19 12:46:47;;;;;;;6.72;1.98;;;;;;;27.44;24.71;101234.11;5331765;55;1139079;-77
2022/05/19 12:51:57;;;;;;;12.63;1.92;;;;;;;27.48;25.23;101227.22;5331518;55;1138968;-74
2022/05/19 12:57:13;;;;;;;3.17;1.75;;;;;;;27.77;25.92;101209.59;5331782;55;1141078;-73
2022/05/19 13:02:26;;;;;;;4.75;1.62;;;;;;;27.90;25.16;101205.45;5318276;55;1139191;-76
2022/05/19 13:07:42;;;;;;;3.27;1.82;;;;;;;28.00;24.74;101201.21;5193418;56;1139084;-74
2022/05/19 13:13:04;;;;;;;3.33;1.60;;;;;;;27.97;25.55;101187.20;5151129;57;1139034;-76
2022/05/19 13:18:11;;;;;;;12.25;1.98;;;;;;;28.05;25.11;101194.30;5151458;57;1139133;-76
2022/05/19 13:23:27;;;;;;;6.58;1.67;;;;;;;28.09;25.55;101175.97;5151296;57;1139052;-75
2022/05/19 13:34:00;;;;;;;6.10;2.17;;;;;;;28.05;24.93;101166.57;5202299;56;1137034;-75
2022/05/19 13:39:13;;;;;;;3.95;1.45;;;;;;;28.20;25.74;101158.98;5242199;56;1136946;-74
2022/05/19 13:44:32;;;;;;;4.85;1.80;;;;;;;28.37;25.65;101153.84;5221926;56;1137204;-73
2022/05/19 13:49:38;;;;;;;7.03;1.65;;;;;;;28.31;25.79;101155.55;5138135;57;1136988;-77
2022/05/19 13:54:49;;;;;;;2.75;1.60;;;;;;;28.28;26.42;101148.34;5211119;56;1137046;-76
2022/05/19 14:00:05;;;;;;;10.63;2.62;;;;;;;28.27;26.08;101131.19;5155724;57;1134781;-73
2022/05/19 14:05:23;;;;;;;5.67;2.10;;;;;;;28.20;26.46;101130.94;5242265;56;1141063;-73
2022/05/19 14:10:35;;;;;;;5.03;1.80;;;;;;;28.10;26.63;101126.49;5155566;57;1139050;-75
2022/05/19 14:16:03;;;;;;;5.30;1.60;;;;;;;28.00;26.88;101118.27;5242337;56;1139032;-74
2022/05/19 14:21:29;;;;;;;9.80;2.00;;;;;;;28.07;26.39;101111.97;5155734;57;1139107;-75
2022/05/19 14:26:45;;;;;;;7.67;2.10;;;;;;;28.18;26.37;101101.20;5149341;57;1139090;-74
2022/05/19 14:32:00;;;;;;;13.03;2.17;;;;;;;28.25;25.93;101105.28;5139153;56;1138962;-73
2022/05/19 14:37:18;;;;;;;13.62;2.60;;;;;;;28.31;26.31;101092.14;5218773;56;1141078;-72
2022/05/19 14:47:54;;;;;;;4.25;1.95;;;;;;;28.39;25.85;101075.55;5151634;57;1139257;-71
2022/05/19 14:53:13;;;;;;;4.28;1.90;;;;;;;28.38;26.17;101065.72;5087976;57;1139164;-74
2022/05/19 14:58:25;;;;;;;15.95;2.47;;;;;;;28.49;26.53;101064.16;5072468;58;1139023;-74
2022/05/19 15:03:33;;;;;;;11.80;3.50;;;;;;;28.63;26.44;101058.89;5190068;56;1141055;-77
2022/05/19 15:08:39;;;;;;;10.50;2.60;;;;;;;28.66;26.48;101045.67;5237934;56;1138961;-77
2022/05/19 15:13:44;;;;;;;4.50;1.98;;;;;;;28.60;26.05;101049.27;5237990;56;1139081;-78
2022/05/19 15:18:52;;;;;;;9.83;2.40;;;;;;;28.44;26.40;101048.48;5235774;56;1136917;-75
2022/05/19 15:23:57;;;;;;;3.15;2.90;;;;;;;28.42;26.23;101044.31;5185433;56;1136895;-75
2022/05/19 15:29:03;;;;;;;13.90;2.33;;;;;;;28.41;26.12;101043.52;5193170;56;1136922;-76
2022/05/19 15:34:10;;;;;;;3.80;1.75;;;;;;;28.29;25.70;101044.75;5161904;56;1139072;-76
2022/05/19 15:39:20;;;;;;;6.33;1.70;;;;;;;28.23;25.64;101025.78;5141621;57;1137343;-77
2022/05/19 15:44:26;;;;;;;12.40;1.90;;;;;;;28.32;25.73;101029.34;5143993;57;1136888;-76
2022/05/19 15:49:33;;;;;;;8.88;1.90;;;;;;;28.40;26.12;101025.52;5133040;57;1139048;-74
2022/05/19 15:54:38;;;;;;;4.70;1.85;;;;;;;28.39;25.86;101023.02;5085411;57;1136940;-75
2022/05/19 15:59:44;;;;;;;7.95;2.27;;;;;;;28.38;25.51;101012.66;5047374;57;1136898;-75
2022/05/19 16:04:56;;;;;;;6.67;1.40;;;;;;;28.34;25.97;100998.67;5011991;58;1136946;-74
2022/05/19 16:09:58;;;;;;;2.35;1.40;;;;;;;28.34;26.14;100995.12;5027452;58;1137119;-74
2022/05/19 16:15:08;;;;;;;7.62;2.37;;;;;;;28.28;25.81;100984.59;5099580;57;1136844;-78
2022/05/19 16:20:17;;;;;;;4.30;1.92;;;;;;;28.28;25.86;100988.67;5053274;58;1136918;-75
2022/05/19 16:25:29;;;;;;;8.80;1.80;;;;;;;28.24;25.34;100973.88;5122652;57;1134910;-77
2022/05/19 16:30:37;;;;;;;4.80;2.15;;;;;;;28.24;25.80;100980.67;5081348;57;1138961;-76
2022/05/19 16:35:44;;;;;;;7.15;3.10;;;;;;;28.16;25.14;100982.80;5029888;58;1139250;-76
2022/05/19 16:40:51;;;;;;;5.67;2.07;;;;;;;28.08;26.34;100981.73;5064787;58;1138881;-77
2022/05/19 16:45:58;;;;;;;11.95;2.15;;;;;;;28.11;26.08;100983.45;5001992;57;1139021;-75
2022/05/19 16:51:05;;;;;;;24.27;2.75;;;;;;;27.98;26.01;100978.97;5082332;57;1141289;-74
2022/05/19 17:01:35;;;;;;;10.95;2.10;;;;;;;27.78;26.78;100970.69;5141339;57;1138958;-75
2022/05/19 17:06:41;;;;;;;7.30;1.90;;;;;;;27.62;26.76;100968.81;5141318;57;1141090;-77
2022/05/19 17:11:47;;;;;;;9.65;2.27;;;;;;;27.53;26.85;100964.64;5075202;57;1138911;-78
2022/05/19 17:16:53;;;;;;;9.85;2.30;;;;;;;27.47;26.96;100962.83;5161444;56;1139024;-77
2022/05/19 17:21:58;;;;;;;11.33;2.15;;;;;;;27.41;26.66;100967.77;5161531;56;1139202;-76
2022/05/19 17:27:04;;;;;;;7.97;2.37;;;;;;;27.31;27.03;100961.98;5191577;55;1141074;-78
2022/05/19 17:32:10;;;;;;;6.45;2.02;;;;;;;27.24;27.11;100953.86;5135726;56;1139117;-75
2022/05/19 17:37:16;;;;;;;9.63;3.10;;;;;;;27.25;27.01;100948.73;5124825;56;1139211;-74
2022/05/19 17:42:22;;;;;;;19.35;8.73;;;;;;;27.20;26.90;100943.64;5149789;56;1139596;-77
2022/05/19 17:47:30;;;;;;;18.57;5.70;;;;;;;27.15;26.99;100938.88;5083482;57;1141308;-76
2022/05/19 17:52:35;;;;;;;13.62;3.30;;;;;;;27.06;27.01;100934.73;5045978;58;1141313;-74
2022/05/19 17:57:41;;;;;;;4.85;4.15;;;;;;;26.97;26.99;100926.55;5056215;57;1141088;-73
2022/05/19 18:02:47;;;;;;;9.98;3.70;;;;;;;26.85;27.33;100925.02;5140091;56;1138957;-74
2022/05/19 18:07:59;;;;;;;4.75;2.37;;;;;;;26.72;27.55;100926.42;5106530;57;1139003;-74
2022/05/19 18:13:02;;;;;;;13.93;2.00;;;;;;;26.63;27.92;100920.39;5099195;57;1138783;-75
2022/05/19 18:18:22;;;;;;;10.13;2.00;;;;;;;26.53;28.16;100918.66;5052142;57;1141292;-74
2022/05/19 18:23:31;;;;;;;4.85;2.92;;;;;;;26.43;28.29;100914.19;5096395;57;1140975;-74
2022/05/19 18:28:39;;;;;;;8.50;2.72;;;;;;;26.30;28.45;100924.23;5068362;57;1139044;-76
2022/05/19 18:33:46;;;;;;;18.67;2.65;;;;;;;26.13;28.75;100923.81;5153124;55;1139041;-79
2022/05/19 18:38:52;;;;;;;16.93;5.90;;;;;;;26.01;29.02;100921.44;5202525;56;1141173;-75
2022/05/19 18:49:23;;;;;;;3.98;2.83;;;;;;;25.70;29.49;100931.04;5145828;56;1139357;-77
2022/05/19 18:54:29;;;;;;;16.77;5.03;;;;;;;25.56;29.87;100931.52;5174199;56;1136896;-78
2022/05/19 18:59:35;;;;;;;11.88;5.72;;;;;;;25.33;30.18;100925.67;5214272;56;1139182;-74
2022/05/19 19:04:42;;;;;;;4.80;3.22;;;;;;;25.08;30.62;100936.21;5219742;56;1139235;-78
2022/05/19 19:09:49;;;;;;;22.52;5.92;;;;;;;24.91;31.05;100938.92;5219665;56;1137187;-73
2022/05/19 19:14:55;;;;;;;11.48;5.80;;;;;;;24.77;31.40;100929.92;5219577;56;1139000;-74
2022/05/19 19:20:01;;;;;;;14.98;4.33;;;;;;;24.64;31.55;100930.39;5167043;56;1138938;-76
2022/05/19 19:25:11;;;;;;;36.03;3.90;;;;;;;24.57;31.77;100922.77;5180456;56;1139345;-75
2022/05/19 19:30:16;;;;;;;19.62;5.05;;;;;;;24.43;31.92;100918.66;5215406;56;1138996;-75
2022/05/19 19:35:22;;;;;;;11.70;4.87;;;;;;;24.25;31.87;100908.03;5242616;55;1139040;-77
2022/05/19 19:40:29;;;;;;;10.88;4.42;;;;;;;24.09;32.57;100908.63;5242509;55;1139112;-77
2022/05/19 19:45:34;;;;;;;17.75;5.12;;;;;;;24.03;32.79;100915.33;5220404;55;1139040;-75
2022/05/19 19:56:04;;;;;;;16.40;5.40;;;;;;;23.61;34.54;100908.14;5226301;55;1134884;-77
2022/05/19 20:01:11;;;;;;;23.50;4.83;;;;;;;23.47;35.48;100899.06;5208892;56;1136888;-78
2022/05/19 20:06:17;;;;;;;46.60;15.03;;;;;;;23.43;36.21;100900.47;5219995;55;1141153;-77
2022/05/19 20:11:23;;;;;;;32.20;12.33;;;;;;;23.34;36.07;100884.09;5267061;55;1143251;-76
2022/05/19 20:16:30;;;;;;;29.43;10.57;;;;;;;23.23;36.09;100877.33;5246894;55;1143109;-76
2022/05/19 20:21:42;;;;;;;31.63;8.70;;;;;;;23.13;36.42;100876.82;5261081;55;1143378;-78
2022/05/19 20:26:44;;;;;;;26.65;9.85;;;;;;;23.06;36.52;100875.93;5217348;56;1141238;-78
2022/05/19 20:31:51;;;;;;;30.08;9.95;;;;;;;22.95;36.72;100861.58;5290536;55;1141396;-73
2022/05/19 20:36:57;;;;;;;39.00;10.72;;;;;;;22.78;36.70;100865.85;5289657;55;1141073;-76
2022/05/19 20:42:04;;;;;;;25.30;9.70;;;;;;;22.52;36.81;100869.55;5285070;55;1143412;-75
2022/05/19 20:47:10;;;;;;;20.62;7.88;;;;;;;22.39;37.36;100868.88;5242493;55;1141499;-76
2022/05/19 20:52:16;;;;;;;23.65;8.43;;;;;;;22.23;38.35;100871.77;5321111;55;1141070;-79
2022/05/19 20:57:22;;;;;;;27.40;9.78;;;;;;;22.18;38.88;100863.39;5323098;55;1141075;-76
2022/05/19 21:02:28;;;;;;;33.13;9.93;;;;;;;22.15;39.09;100846.79;5331776;55;1141023;-74
2022/05/19 21:07:34;;;;;;;56.68;10.25;;;;;;;22.06;39.06;100850.07;5331918;54;1140960;-74
2022/05/19 21:12:38;;;;;;;47.03;9.63;;;;;;;;;;5269797;55;1143175;-78
2022/05/19 21:17:44;;;;;;;50.78;9.35;;;;;;;21.89;39.26;100844.50;5225800;56;820156;-75
2022/05/19 21:22:50;;;;;;;31.35;8.53;;;;;;;21.84;39.56;100831.61;5229919;55;1139005;-73
2022/05/19 21:27:56;;;;;;;29.27;7.58;;;;;;;21.82;39.68;100835.50;5320963;55;1141382;-78
2022/05/19 21:33:02;;;;;;;21.55;5.40;;;;;;;21.78;40.00;100829.64;5320834;55;1140970;-77
2022/05/19 21:38:08;;;;;;;17.52;4.78;;;;;;;21.73;39.10;100831.53;5265316;55;1141337;-77
2022/05/19 21:43:20;;;;;;;12.43;6.00;;;;;;;21.57;38.43;100828.16;5164834;56;1141084;-77
2022/05/19 21:48:26;;;;;;;15.80;4.42;;;;;;;21.33;38.13;100839.48;5232760;55;1141024;-77
2022/05/19 21:58:56;;;;;;;11.80;3.72;;;;;;;21.04;38.08;100838.84;5278392;55;1138897;-79
2022/05/19 22:04:02;;;;;;;14.70;3.50;;;;;;;20.95;38.06;100834.52;5278255;55;1141064;-76
2022/05/19 22:09:09;;;;;;;14.00;3.12;;;;;;;20.84;38.05;100830.06;5254953;56;1141363;-78
2022/05/19 22:14:15;;;;;;;8.90;2.90;;;;;;;20.77;38.10;100821.05;5278190;56;1141157;-73
2022/05/19 22:19:20;;;;;;;8.85;3.33;;;;;;;20.67;38.16;100823.44;5275865;55;1138976;-74
2022/05/19 22:24:26;;;;;;;5.90;2.60;;;;;;;20.66;38.07;100816.39;5254990;55;1138975;-69
2022/05/19 22:29:33;;;;;;;25.80;3.50;;;;;;;20.62;38.46;100800.82;5190935;56;1139097;-72
2022/05/19 22:34:38;;;;;;;11.60;2.90;;;;;;;20.62;38.46;100800.82;5243186;56;1141065;-71
2022/05/19 22:39:45;;;;;;;13.60;3.15;;;;;;;20.59;37.93;100791.77;5278053;56;1141251;-71
2022/05/19 22:44:51;;;;;;;17.42;3.30;;;;;;;20.58;37.88;100791.42;5278138;56;1141100;-71
2022/05/19 22:49:57;;;;;;;5.85;2.92;;;;;;;20.53;37.86;100777.17;5204776;56;1141074;-71
2022/05/19 22:55:05;;;;;;;9.98;3.00;;;;;;;20.45;37.98;100778.58;5232727;56;1139012;-71
2022/05/19 23:00:12;;;;;;;17.73;3.37;;;;;;;20.38;38.08;100781.62;5242051;56;1136833;-72
2022/05/19 23:05:18;;;;;;;11.08;2.92;;;;;;;20.28;38.32;100777.80;5198632;56;1139003;-71
2022/05/19 23:10:26;;;;;;;6.58;2.52;;;;;;;20.23;38.66;100785.53;5216326;56;1139046;-71
2022/05/19 23:15:33;;;;;;;7.48;2.96;;;;;;;20.16;38.96;100777.86;5284375;55;1137374;-72
2022/05/19 23:20:39;;;;;;;10.55;2.83;;;;;;;20.08;39.12;100772.50;5309561;55;1136914;-72
2022/05/19 23:25:45;;;;;;;12.00;2.90;;;;;;;20.02;39.26;100763.79;5309796;55;1139163;-71
2022/05/19 23:30:51;;;;;;;11.68;3.02;;;;;;;19.98;39.46;100767.35;5327180;55;1138527;-72
2022/05/19 23:36:00;;;;;;;7.50;2.80;;;;;;;19.95;39.70;100768.20;5314069;55;1138979;-72
2022/05/19 23:41:07;;;;;;;15.93;4.08;;;;;;;19.91;39.78;100756.13;5258726;55;1136964;-72
2022/05/19 23:46:13;;;;;;;8.90;3.25;;;;;;;19.87;39.95;100761.50;5235091;55;1139272;-72
2022/05/19 23:51:21;;;;;;;15.03;3.37;;;;;;;19.78;40.25;100760.70;5379767;54;1136830;-72
2022/05/19 23:56:27;;;;;;;14.53;3.10;;;;;;;19.72;40.49;100749.30;5378646;54;1139067;-72
